This is the latest recevied weather packets stored in our database for station/object N1MCJ. If no packets are shown the sender has not sent any weather packets the latest 10 day(s).
| Time | Temp. | Humidity | Pressure | Rain* | Wind** | Luminosity | Snow |
|---|---|---|---|---|---|---|---|
| 1777829691 | 11.67° C | 38% | 1001 hPa | 0 mm | - | 144 W/m² | - |
| 1777828788 | 11.11° C | 44% | 1000.9 hPa | 0 mm | - | 360 W/m² | - |
| 1777827884 | 10° C | 47% | 1001.2 hPa | 0 mm | - | 146 W/m² | - |
| 1777826981 | 10° C | 44% | 1001.3 hPa | 0 mm | - | 135 W/m² | - |
| 1777826078 | 10.56° C | 44% | 1001.2 hPa | 0 mm | - | 235 W/m² | - |
| 1777825175 | 9.44° C | 48% | 1001.5 hPa | 0 mm | - | 185 W/m² | - |
| 1777824271 | 8.89° C | 48% | 1001.7 hPa | 0 mm | - | 85 W/m² | - |
| 1777823366 | 8.89° C | 55% | 1001.7 hPa | 0 mm | - | 67 W/m² | - |
| 1777822466 | 10° C | 50% | 1001.5 hPa | 0 mm | - | 55 W/m² | - |
| 1777821563 | 9.44° C | 53% | 1001.6 hPa | 0 mm | - | 723 W/m² | - |
| 1777820661 | 9.44° C | 53% | 1001.5 hPa | 0 mm | - | 193 W/m² | - |
| 1777819757 | 8.89° C | 54% | 1001.5 hPa | 0 mm | - | 184 W/m² | - |
| 1777818855 | 8.89° C | 54% | 1001.3 hPa | 0 mm | - | 116 W/m² | - |
| 1777817951 | 8.89° C | 55% | 1001.4 hPa | 0 mm | - | 297 W/m² | - |
| 1777817048 | 8.89° C | 55% | 1001.4 hPa | 0 mm | - | 109 W/m² | - |
| 1777816145 | 8.33° C | 56% | 1001.4 hPa | 0 mm | - | 111 W/m² | - |
| 1777815244 | 7.78° C | 59% | 1001.5 hPa | 0 mm | - | 45 W/m² | - |
| 1777814339 | 7.78° C | 60% | 1001.6 hPa | 0 mm | - | 159 W/m² | - |
| 1777813436 | 7.22° C | 62% | 1001.6 hPa | 0 mm | - | 37 W/m² | - |
| 1777812533 | 6.67° C | 63% | 1001.6 hPa | 0 mm | - | 126 W/m² | - |
| 1777811633 | 6.67° C | 64% | 1001.5 hPa | 0 mm | - | 105 W/m² | - |
| 1777810734 | 6.11° C | 66% | 1001.5 hPa | 0 mm | - | 32 W/m² | - |
| 1777809829 | 6.11° C | 67% | 1001.5 hPa | 0 mm | - | 46 W/m² | - |
| 1777808928 | 5.56° C | 68% | 1001.4 hPa | 0 mm | - | 150 W/m² | - |
| 1777808026 | 5.56° C | 69% | 1001.5 hPa | 0 mm | - | 86 W/m² | - |
* Rain latest hour (hover to see other rain measurements)
** Current wind speed in m/s (hover to see current wind gust speed)